Time;durP1;ratioP1;P1;durP2;ratioP2;P2;SDS_P1;SDS_P2;PMS_P1;PMS_P2;Temp;Humidity;BMP_temperature;BMP_pressure;BME280_temperature;BME280_humidity;BME280_pressure;Samples;Min_cycle;Max_cycle;Signal;HPM_P1;HPM_P2
2023/05/08 00:00:38;;;;;;;17.60;12.80;;;13.20;99.90;;;;;;5011213;28;20226;-70
2023/05/08 00:03:04;;;;;;;19.47;12.90;;;13.20;99.90;;;;;;5002163;28;20045;-70
2023/05/08 00:05:30;;;;;;;22.17;11.47;;;13.20;99.90;;;;;;5013761;28;20415;-79
2023/05/08 00:08:00;;;;;;;17.48;12.05;;;13.30;99.90;;;;;;5014158;28;20029;-70
2023/05/08 00:10:27;;;;;;;14.93;9.90;;;13.20;99.90;;;;;;5003813;28;20121;-71
2023/05/08 00:12:54;;;;;;;11.65;8.68;;;13.10;99.90;;;;;;5010667;28;20044;-71
2023/05/08 00:15:19;;;;;;;19.65;12.13;;;13.10;99.90;;;;;;5005732;28;20041;-70
2023/05/08 00:17:45;;;;;;;13.23;9.57;;;13.10;99.90;;;;;;5013808;28;20317;-70
2023/05/08 00:20:11;;;;;;;12.93;9.67;;;13.00;99.90;;;;;;5012365;28;20105;-70
2023/05/08 00:22:37;;;;;;;15.13;10.35;;;13.00;99.90;;;;;;5013499;28;20385;-71
2023/05/08 00:25:04;;;;;;;13.17;8.90;;;13.00;99.90;;;;;;5013497;28;20033;-70
2023/05/08 00:27:30;;;;;;;;;;;12.90;99.90;;;;;;5012345;28;20048;-70
2023/05/08 00:29:56;;;;;;;10.75;8.23;;;12.90;99.90;;;;;;5013088;28;19964;-70
2023/05/08 00:32:23;;;;;;;10.10;7.70;;;12.80;99.90;;;;;;5013634;28;20033;-70
2023/05/08 00:34:49;;;;;;;10.38;7.93;;;12.80;99.90;;;;;;5009095;28;20037;-70
2023/05/08 00:37:14;;;;;;;30.40;8.60;;;12.80;99.90;;;;;;5006258;28;20046;-70
2023/05/08 00:39:40;;;;;;;147.53;9.30;;;12.80;99.90;;;;;;5012818;28;20493;-70
2023/05/08 00:42:06;;;;;;;304.63;12.20;;;12.60;99.90;;;;;;5013757;28;20026;-70
2023/05/08 00:44:31;;;;;;;158.07;7.73;;;12.40;99.90;;;;;;5012452;28;20072;-70
2023/05/08 00:46:57;;;;;;;24.60;4.53;;;11.90;99.90;;;;;;5011753;28;20531;-70
2023/05/08 00:49:24;;;;;;;15.80;5.17;;;11.70;99.90;;;;;;5013667;28;20109;-71
2023/05/08 00:51:53;;;;;;;9.57;7.10;;;11.80;99.90;;;;;;5013235;28;20345;-70
2023/05/08 00:54:19;;;;;;;8.35;6.40;;;11.80;99.90;;;;;;5011541;28;20448;-70
2023/05/08 00:56:49;;;;;;;13.43;7.50;;;12.00;99.90;;;;;;5012639;28;20121;-70
2023/05/08 00:59:16;;;;;;;9.95;7.13;;;12.00;99.90;;;;;;5011331;28;20045;-70
2023/05/08 01:01:43;;;;;;;9.65;6.82;;;12.10;99.90;;;;;;5005407;28;20409;-70
2023/05/08 01:04:09;;;;;;;12.27;8.43;;;12.10;99.90;;;;;;5006870;28;20451;-70
2023/05/08 01:06:38;;;;;;;14.90;10.38;;;12.20;99.90;;;;;;5012600;28;20029;-70
2023/05/08 01:09:04;;;;;;;14.82;10.07;;;12.20;99.90;;;;;;5011843;28;20026;-78
2023/05/08 01:11:41;;;;;;;13.13;9.82;;;12.30;99.90;;;;;;5013704;28;20270;-70
2023/05/08 01:14:23;;;;;;;13.63;9.25;;;12.30;99.90;;;;;;5013368;28;20520;-70
2023/05/08 01:17:21;;;;;;;13.55;9.55;;;12.30;99.90;;;;;;5013086;28;20109;-79
2023/05/08 01:20:13;;;;;;;9.63;6.85;;;12.40;99.90;;;;;;5013351;28;20100;-70
2023/05/08 01:23:06;;;;;;;11.05;7.75;;;12.40;99.90;;;;;;5013712;28;20101;-70
2023/05/08 01:25:32;;;;;;;49.38;9.98;;;12.40;99.90;;;;;;5014041;28;20038;-70
2023/05/08 01:28:26;;;;;;;12.57;7.77;;;12.50;99.90;;;;;;5012052;28;20037;-70
2023/05/08 01:31:03;;;;;;;51.42;7.72;;;12.50;99.90;;;;;;5008767;28;20025;-70
2023/05/08 01:33:58;;;;;;;15.98;6.90;;;12.40;99.90;;;;;;5015929;28;20172;-70
2023/05/08 01:36:49;;;;;;;133.07;6.82;;;12.40;99.90;;;;;;5009518;28;20042;-70
2023/05/08 01:39:48;;;;;;;278.63;8.93;;;12.40;99.90;;;;;;5005803;28;20018;-71
2023/05/08 01:42:48;;;;;;;175.55;7.95;;;12.30;99.90;;;;;;5014269;28;20033;-70
2023/05/08 01:45:29;;;;;;;103.60;6.28;;;12.30;99.90;;;;;;5014845;28;20038;-70
2023/05/08 01:48:09;;;;;;;83.40;6.38;;;12.20;99.90;;;;;;5016984;28;20464;-70
2023/05/08 01:50:41;;;;;;;90.63;5.65;;;12.20;99.90;;;;;;5016304;28;20507;-78
2023/05/08 01:53:20;;;;;;;52.88;4.75;;;12.20;99.90;;;;;;5015921;28;20065;-70
2023/05/08 01:55:49;;;;;;;38.85;4.43;;;12.10;99.90;;;;;;5012906;28;20443;-70
2023/05/08 01:58:17;;;;;;;26.60;3.67;;;12.00;99.90;;;;;;5017340;28;20026;-71
2023/05/08 02:00:43;;;;;;;4.57;4.18;;;12.00;99.90;;;;;;5015825;28;20026;-70
2023/05/08 02:03:10;;;;;;;17.92;4.28;;;11.90;99.90;;;;;;5017019;28;20072;-70
2023/05/08 02:05:37;;;;;;;9.27;3.97;;;11.90;99.90;;;;;;5016497;28;20310;-77
2023/05/08 02:08:04;;;;;;;7.95;4.78;;;11.90;99.90;;;;;;5015919;28;20042;-70
2023/05/08 02:10:30;;;;;;;;;;;11.90;99.90;;;;;;5014751;28;20425;-70
2023/05/08 02:12:58;;;;;;;8.52;4.47;;;11.90;99.90;;;;;;5017184;28;19905;-70
2023/05/08 02:15:26;;;;;;;20.48;7.18;;;12.00;99.90;;;;;;5015745;28;20041;-71
2023/05/08 02:17:54;;;;;;;7.35;5.95;;;11.90;99.90;;;;;;5011112;28;20030;-70
2023/05/08 02:20:21;;;;;;;9.30;4.38;;;11.90;99.90;;;;;;5012844;28;20368;-70
2023/05/08 02:22:50;;;;;;;4.80;3.53;;;11.90;99.90;;;;;;5015646;28;20057;-75
2023/05/08 02:25:17;;;;;;;134.27;6.85;;;11.90;99.90;;;;;;5015231;28;20038;-70
2023/05/08 02:27:44;;;;;;;;;;;11.80;99.90;;;;;;5015808;28;20036;-70
2023/05/08 02:30:15;;;;;;;48.15;3.67;;;11.80;99.90;;;;;;5009673;28;19914;-70
2023/05/08 02:32:43;;;;;;;5.93;3.92;;;11.80;99.90;;;;;;5015755;28;20025;-70
2023/05/08 02:35:14;;;;;;;12.70;5.15;;;11.80;99.90;;;;;;5015020;28;20057;-70
2023/05/08 02:37:45;;;;;;;24.55;4.22;;;11.80;99.90;;;;;;5014604;28;20030;-71
2023/05/08 02:40:13;;;;;;;98.32;5.32;;;11.80;99.90;;;;;;5015791;28;20317;-70
2023/05/08 02:42:39;;;;;;;128.18;4.88;;;11.80;99.90;;;;;;5015815;28;20093;-71
2023/05/08 02:45:06;;;;;;;6.50;2.42;;;11.70;99.90;;;;;;5015804;28;20026;-70
2023/05/08 02:48:07;;;;;;;40.35;2.53;;;11.60;99.90;;;;;;5015780;28;20448;-70
2023/05/08 02:51:20;;;;;;;44.78;2.33;;;11.50;99.90;;;;;;5014751;28;20046;-70
2023/05/08 02:54:08;;;;;;;36.80;1.88;;;11.40;99.90;;;;;;5015114;28;20391;-70
2023/05/08 02:56:45;;;;;;;37.75;2.13;;;11.30;99.90;;;;;;5016256;28;20053;-70
2023/05/08 02:59:21;;;;;;;56.58;2.75;;;11.20;99.90;;;;;;5014516;28;20030;-70
2023/05/08 03:01:57;;;;;;;12.38;2.10;;;11.20;99.90;;;;;;5003294;28;20049;-70
2023/05/08 03:04:57;;;;;;;4.65;1.75;;;11.20;99.90;;;;;;5015630;28;20045;-70
2023/05/08 03:07:26;;;;;;;27.63;4.05;;;11.10;99.90;;;;;;5014936;28;20038;-70
2023/05/08 03:10:02;;;;;;;71.05;5.97;;;11.10;99.90;;;;;;5013492;28;20091;-69
2023/05/08 03:12:31;;;;;;;38.97;5.38;;;11.20;99.90;;;;;;5015270;28;20290;-70
2023/05/08 03:15:05;;;;;;;9.82;5.43;;;11.10;99.90;;;;;;5015016;28;20026;-69
2023/05/08 03:17:32;;;;;;;8.88;3.90;;;11.20;99.90;;;;;;5015700;28;20087;-70
2023/05/08 03:20:04;;;;;;;51.22;6.38;;;11.20;99.90;;;;;;5011216;28;20022;-70
2023/05/08 03:22:33;;;;;;;70.90;8.23;;;11.10;99.90;;;;;;5015496;28;20026;-79
2023/05/08 03:25:02;;;;;;;62.90;8.07;;;11.10;99.90;;;;;;5015021;28;20076;-70
2023/05/08 03:27:29;;;;;;;32.08;7.90;;;11.10;99.90;;;;;;5015300;28;20418;-70
2023/05/08 03:29:57;;;;;;;15.93;6.88;;;11.10;99.90;;;;;;5014045;28;20037;-70
2023/05/08 03:32:25;;;;;;;20.58;7.10;;;11.20;99.90;;;;;;5011109;28;20033;-70
2023/05/08 03:34:51;;;;;;;51.10;7.00;;;11.20;99.90;;;;;;5014275;28;20321;-70
2023/05/08 03:37:17;;;;;;;36.63;5.07;;;11.30;99.90;;;;;;5014901;28;20076;-70
2023/05/08 03:39:43;;;;;;;30.57;5.47;;;11.30;99.90;;;;;;5011348;28;20025;-70
2023/05/08 03:42:10;;;;;;;105.40;7.47;;;11.20;99.90;;;;;;5014733;28;20034;-69
2023/05/08 03:44:37;;;;;;;41.13;6.72;;;11.20;99.90;;;;;;5015220;28;20093;-82
2023/05/08 03:47:04;;;;;;;64.00;7.15;;;11.20;99.90;;;;;;5012946;28;20402;-83
2023/05/08 03:49:31;;;;;;;60.45;7.03;;;11.20;99.90;;;;;;5013047;28;20328;-70
2023/05/08 03:51:57;;;;;;;58.30;7.38;;;11.20;99.90;;;;;;5014892;28;20045;-69
2023/05/08 03:54:24;;;;;;;18.90;7.18;;;11.30;99.90;;;;;;5014840;28;20120;-70
2023/05/08 03:56:52;;;;;;;10.05;6.68;;;11.30;99.90;;;;;;5013586;28;20030;-70
2023/05/08 03:59:31;;;;;;;16.95;8.38;;;11.30;99.90;;;;;;5013738;28;20417;-69
2023/05/08 04:02:24;;;;;;;78.07;12.00;;;11.20;99.90;;;;;;5014315;28;20026;-69
2023/05/08 04:05:00;;;;;;;27.27;9.85;;;11.30;99.90;;;;;;5027179;28;20113;-69
2023/05/08 04:07:31;;;;;;;38.17;9.95;;;11.30;99.90;;;;;;5013818;28;20077;-69
2023/05/08 04:10:37;;;;;;;15.18;9.32;;;11.30;99.90;;;;;;5013563;28;20022;-69
2023/05/08 04:13:13;;;;;;;17.63;9.75;;;11.30;99.90;;;;;;5010246;28;20019;-69
2023/05/08 04:15:49;;;;;;;44.35;11.20;;;11.30;99.90;;;;;;5014759;28;20109;-69
2023/05/08 04:18:17;;;;;;;29.88;12.38;;;11.30;99.90;;;;;;5010186;28;20017;-69
2023/05/08 04:20:46;;;;;;;24.98;11.95;;;11.30;99.90;;;;;;5001715;28;20026;-69
2023/05/08 04:23:17;;;;;;;36.78;10.98;;;11.40;99.90;;;;;;5013387;28;20520;-69
2023/05/08 04:25:44;;;;;;;32.78;11.23;;;11.50;99.90;;;;;;5015057;28;20038;-82
2023/05/08 04:28:11;;;;;;;25.42;10.82;;;11.50;99.90;;;;;;5006446;28;20058;-69
2023/05/08 04:30:38;;;;;;;17.25;10.18;;;11.50;99.90;;;;;;5011963;28;20485;-70
2023/05/08 04:33:05;;;;;;;12.52;8.70;;;11.60;99.90;;;;;;5013885;28;20041;-69
2023/05/08 04:35:32;;;;;;;28.58;7.80;;;11.60;99.90;;;;;;5012789;28;20044;-70
2023/05/08 04:37:58;;;;;;;32.75;8.43;;;11.70;99.90;;;;;;5014059;28;20034;-69
2023/05/08 04:40:24;;;;;;;17.25;5.63;;;11.70;99.90;;;;;;5009959;28;20425;-69
2023/05/08 04:42:50;;;;;;;28.67;6.32;;;11.80;99.90;;;;;;5014217;28;20045;-82
2023/05/08 04:45:16;;;;;;;12.57;5.63;;;11.80;99.90;;;;;;5013549;28;20034;-69
2023/05/08 04:47:42;;;;;;;25.50;6.90;;;11.90;99.90;;;;;;5014678;28;20022;-70
2023/05/08 04:50:08;;;;;;;32.37;7.30;;;11.90;99.90;;;;;;5005255;28;20046;-70
2023/05/08 04:52:34;;;;;;;24.88;7.10;;;11.90;99.90;;;;;;5011975;28;20028;-70
2023/05/08 04:55:00;;;;;;;15.17;6.60;;;11.90;99.90;;;;;;5009752;28;20045;-69
2023/05/08 04:57:25;;;;;;;16.23;7.73;;;11.90;99.90;;;;;;5004133;28;20124;-69
2023/05/08 04:59:51;;;;;;;81.17;8.73;;;12.00;99.90;;;;;;5017084;28;20026;-69
2023/05/08 05:02:17;;;;;;;85.47;9.33;;;12.00;99.90;;;;;;5018174;28;20033;-70
2023/05/08 05:04:42;;;;;;;11.80;7.63;;;12.10;99.90;;;;;;5016336;28;21991;-70
2023/05/08 05:07:08;;;;;;;10.77;7.30;;;12.10;99.90;;;;;;5015158;28;20440;-69
2023/05/08 05:09:35;;;;;;;48.80;9.00;;;12.10;99.90;;;;;;5012822;28;20030;-82
2023/05/08 05:12:03;;;;;;;26.27;7.68;;;12.10;99.90;;;;;;5018094;28;20293;-70
2023/05/08 05:14:29;;;;;;;132.60;8.82;;;12.20;99.90;;;;;;5018394;28;20062;-70
2023/05/08 05:16:55;;;;;;;88.15;8.13;;;12.20;99.90;;;;;;5016547;28;20025;-70
2023/05/08 05:19:20;;;;;;;90.60;9.33;;;12.20;99.90;;;;;;5017904;28;20372;-76
2023/05/08 05:21:46;;;;;;;95.60;9.17;;;12.30;99.90;;;;;;5017380;28;20022;-70
2023/05/08 05:24:12;;;;;;;65.50;8.57;;;12.30;99.90;;;;;;5018006;28;20061;-70
2023/05/08 05:26:38;;;;;;;118.07;10.33;;;12.40;99.90;;;;;;5016285;28;20041;-83
2023/05/08 05:29:03;;;;;;;25.70;11.07;;;12.40;99.90;;;;;;5016773;28;20037;-83
2023/05/08 05:31:29;;;;;;;75.43;9.70;;;12.50;99.90;;;;;;5015976;28;20061;-70
2023/05/08 05:33:55;;;;;;;83.93;9.97;;;12.50;99.90;;;;;;5016243;28;20084;-70
2023/05/08 05:36:21;;;;;;;125.03;10.80;;;12.60;99.90;;;;;;5017097;28;20034;-70
2023/05/08 05:38:47;;;;;;;185.85;12.13;;;12.60;99.90;;;;;;5015463;28;20030;-70
2023/05/08 05:41:13;;;;;;;74.53;11.13;;;12.70;99.90;;;;;;5005604;28;20294;-70
2023/05/08 05:43:39;;;;;;;174.75;12.85;;;12.90;99.90;;;;;;5017028;28;20026;-70
2023/05/08 05:46:08;;;;;;;35.23;10.87;;;12.90;99.90;;;;;;5017517;28;20052;-70
2023/05/08 05:48:35;;;;;;;41.35;10.02;;;12.90;99.90;;;;;;5016279;28;20026;-70
2023/05/08 05:51:01;;;;;;;94.75;10.05;;;12.90;99.90;;;;;;5016271;28;20060;-70
2023/05/08 05:53:27;;;;;;;126.43;11.53;;;13.00;99.90;;;;;;5015168;28;20321;-70
2023/05/08 05:55:53;;;;;;;129.23;11.88;;;13.00;99.90;;;;;;5015300;28;20065;-70
2023/05/08 05:58:19;;;;;;;154.10;14.17;;;13.10;99.90;;;;;;5015641;28;20053;-70
2023/05/08 06:00:46;;;;;;;38.38;13.65;;;13.10;99.90;;;;;;5008058;28;20018;-70
2023/05/08 06:03:12;;;;;;;93.32;13.52;;;13.20;99.90;;;;;;5011463;28;20419;-70
2023/05/08 06:05:39;;;;;;;99.65;14.70;;;13.20;99.90;;;;;;5008627;28;20042;-70
2023/05/08 06:08:05;;;;;;;59.65;13.90;;;13.30;99.90;;;;;;5016338;28;20026;-70
2023/05/08 06:10:31;;;;;;;57.20;14.98;;;13.40;99.90;;;;;;5013335;28;20034;-70
2023/05/08 06:12:56;;;;;;;26.03;15.30;;;13.40;99.90;;;;;;5015257;28;20537;-70
2023/05/08 06:15:23;;;;;;;35.65;15.82;;;13.50;99.90;;;;;;5017442;28;20088;-70
2023/05/08 06:17:49;;;;;;;36.83;16.02;;;13.60;99.90;;;;;;5013637;28;20034;-70
2023/05/08 06:20:15;;;;;;;31.97;16.37;;;13.60;99.90;;;;;;5014899;28;20076;-70
2023/05/08 06:22:41;;;;;;;25.47;15.30;;;13.70;99.90;;;;;;5015415;28;20025;-70
2023/05/08 06:25:08;;;;;;;26.40;16.10;;;13.80;99.90;;;;;;5015239;28;20029;-70
2023/05/08 06:27:34;;;;;;;24.52;15.68;;;13.80;99.90;;;;;;5009869;28;20286;-70
2023/05/08 06:30:00;;;;;;;27.35;17.65;;;13.90;99.90;;;;;;5014302;28;20030;-70
2023/05/08 06:32:26;;;;;;;30.55;18.90;;;14.10;99.90;;;;;;5018572;28;20030;-70
2023/05/08 06:34:52;;;;;;;35.07;19.50;;;14.10;99.90;;;;;;5012938;28;20029;-70
2023/05/08 06:37:18;;;;;;;30.37;19.43;;;14.10;99.90;;;;;;5014381;28;20026;-70
2023/05/08 06:39:44;;;;;;;31.10;19.13;;;14.10;99.90;;;;;;5016511;28;20021;-70
2023/05/08 06:42:09;;;;;;;37.40;20.83;;;14.20;99.90;;;;;;5016175;28;20027;-70
2023/05/08 06:44:35;;;;;;;33.00;20.27;;;14.30;99.90;;;;;;5009078;28;20021;-70
2023/05/08 06:47:01;;;;;;;33.37;20.50;;;14.30;99.90;;;;;;5013084;28;20034;-70
2023/05/08 06:49:26;;;;;;;33.77;19.67;;;14.40;99.90;;;;;;5018615;28;20097;-70
2023/05/08 06:51:52;;;;;;;34.67;18.87;;;14.40;99.90;;;;;;5023933;28;20050;-70
2023/05/08 06:54:18;;;;;;;30.80;19.40;;;14.40;99.90;;;;;;5013416;28;20025;-71
2023/05/08 06:56:44;;;;;;;32.93;19.83;;;14.50;99.90;;;;;;5013496;28;20431;-70
2023/05/08 06:59:10;;;;;;;37.40;20.67;;;14.50;99.90;;;;;;5015753;28;20029;-70
2023/05/08 07:01:39;;;;;;;39.37;21.03;;;14.60;99.90;;;;;;5017148;28;20480;-70
2023/05/08 07:04:04;;;;;;;32.83;20.35;;;14.70;99.90;;;;;;5011163;28;20026;-71
2023/05/08 07:06:30;;;;;;;38.27;20.50;;;14.80;99.90;;;;;;5013969;28;20741;-70
2023/05/08 07:08:56;;;;;;;40.47;22.37;;;14.80;99.90;;;;;;5016988;28;20083;-70
2023/05/08 07:11:22;;;;;;;32.97;20.43;;;14.80;99.90;;;;;;5016750;28;20021;-70
2023/05/08 07:13:48;;;;;;;40.67;21.90;;;14.90;99.90;;;;;;5015537;28;20294;-71
2023/05/08 07:16:14;;;;;;;38.50;21.50;;;14.90;99.90;;;;;;5014611;28;20283;-71
2023/05/08 07:18:40;;;;;;;;;;;15.00;99.90;;;;;;5011862;28;20421;-70
2023/05/08 07:21:06;;;;;;;33.80;18.95;;;15.00;99.90;;;;;;5015038;28;20091;-71
2023/05/08 07:23:32;;;;;;;35.70;21.38;;;15.00;99.90;;;;;;5018707;28;20038;-70
2023/05/08 07:25:58;;;;;;;35.20;20.53;;;15.00;99.90;;;;;;5010561;28;20041;-70
2023/05/08 07:28:24;;;;;;;41.73;24.23;;;15.10;99.90;;;;;;5012629;28;20439;-70
2023/05/08 07:30:50;;;;;;;46.13;23.60;;;15.10;99.90;;;;;;5015341;28;20499;-70
2023/05/08 07:33:16;;;;;;;37.75;22.95;;;15.10;99.90;;;;;;5013456;28;20113;-70
2023/05/08 07:35:42;;;;;;;35.57;21.73;;;15.20;99.90;;;;;;5008488;28;20133;-70
2023/05/08 07:38:07;;;;;;;44.20;23.30;;;15.20;99.90;;;;;;5013828;28;20278;-71
2023/05/08 07:40:34;;;;;;;36.57;22.77;;;15.20;99.90;;;;;;5015270;28;20290;-71
2023/05/08 07:42:59;;;;;;;45.83;24.67;;;15.20;99.90;;;;;;5012184;28;20032;-70
2023/05/08 07:45:25;;;;;;;41.27;24.17;;;15.20;99.90;;;;;;5011892;28;20112;-70
2023/05/08 07:47:56;;;;;;;45.10;25.77;;;15.20;99.90;;;;;;5013750;28;20034;-71
2023/05/08 07:50:23;;;;;;;42.15;25.05;;;15.30;99.90;;;;;;5014608;28;20042;-71
2023/05/08 07:52:50;;;;;;;46.05;26.95;;;15.30;99.90;;;;;;5012264;28;20034;-71
2023/05/08 07:55:16;;;;;;;48.38;25.95;;;15.30;99.90;;;;;;5012267;28;20033;-71
2023/05/08 07:57:42;;;;;;;51.65;28.80;;;15.40;99.90;;;;;;5015866;28;20723;-70
2023/05/08 08:00:10;;;;;;;51.28;28.17;;;15.40;99.90;;;;;;5017495;28;20026;-71
2023/05/08 08:02:37;;;;;;;57.83;30.75;;;15.30;99.90;;;;;;5014513;28;20032;-71
2023/05/08 08:05:03;;;;;;;53.15;29.05;;;15.40;99.90;;;;;;5013439;28;20121;-71
2023/05/08 08:07:31;;;;;;;;;;;15.40;99.90;;;;;;5015879;28;20026;-70
2023/05/08 08:09:57;;;;;;;62.35;29.65;;;15.40;99.90;;;;;;5014668;28;19909;-71
2023/05/08 08:12:23;;;;;;;66.05;30.50;;;15.40;99.90;;;;;;5013433;28;20026;-71
2023/05/08 08:14:48;;;;;;;68.73;31.97;;;15.60;99.90;;;;;;5012682;28;20784;-71
2023/05/08 08:17:14;;;;;;;66.47;32.33;;;15.60;99.90;;;;;;5014534;28;20025;-71
2023/05/08 08:19:40;;;;;;;70.43;33.83;;;15.70;99.90;;;;;;5013813;28;20668;-71
2023/05/08 08:22:06;;;;;;;75.33;34.03;;;15.80;99.90;;;;;;5012651;28;20075;-71
2023/05/08 08:24:32;;;;;;;67.37;32.63;;;15.90;99.90;;;;;;5004754;28;20075;-71
2023/05/08 08:26:57;;;;;;;67.43;33.85;;;16.00;99.90;;;;;;5014501;28;20026;-71
2023/05/08 08:29:23;;;;;;;73.03;33.63;;;16.00;99.90;;;;;;5014328;28;20317;-72
2023/05/08 08:31:49;;;;;;;66.60;33.67;;;16.10;99.90;;;;;;5017133;28;20481;-72
2023/05/08 08:34:14;;;;;;;64.27;33.57;;;16.20;99.90;;;;;;5013623;28;20049;-71
2023/05/08 08:36:58;;;;;;;62.30;31.37;;;16.20;99.90;;;;;;5013311;28;20298;-71
2023/05/08 08:39:24;;;;;;;63.85;31.05;;;16.30;99.90;;;;;;5016450;28;20069;-71
2023/05/08 08:41:50;;;;;;;68.67;32.50;;;16.30;99.90;;;;;;5013991;28;20061;-71
2023/05/08 08:44:15;;;;;;;59.63;32.60;;;16.30;99.90;;;;;;5012512;28;20018;-71
2023/05/08 08:46:49;;;;;;;57.90;30.67;;;16.40;99.90;;;;;;5014762;28;20425;-71
2023/05/08 08:49:39;;;;;;;59.13;30.92;;;16.40;99.90;;;;;;5012818;28;20340;-71
2023/05/08 08:52:13;;;;;;;54.30;29.25;;;16.40;99.90;;;;;;5010036;28;20065;-71
2023/05/08 08:54:40;;;;;;;58.17;30.50;;;16.50;99.90;;;;;;5001466;28;20030;-71
2023/05/08 08:57:08;;;;;;;64.85;31.20;;;16.60;99.90;;;;;;5015558;28;20325;-71
2023/05/08 08:59:37;;;;;;;59.40;31.73;;;16.60;99.90;;;;;;5016831;28;20068;-71
2023/05/08 09:02:10;;;;;;;65.22;34.28;;;16.60;99.90;;;;;;5016514;28;20344;-71
2023/05/08 09:04:36;;;;;;;72.75;36.38;;;16.70;99.90;;;;;;5013267;28;20018;-71
2023/05/08 09:07:04;;;;;;;73.78;38.45;;;16.70;99.90;;;;;;5015891;28;20021;-71
2023/05/08 09:09:32;;;;;;;82.43;41.58;;;16.70;99.90;;;;;;5017262;28;20125;-71
2023/05/08 09:11:58;;;;;;;87.35;42.90;;;16.70;99.90;;;;;;5010607;28;20076;-71
2023/05/08 09:14:25;;;;;;;84.30;42.15;;;16.80;99.90;;;;;;5012610;28;20026;-71
2023/05/08 09:16:52;;;;;;;;;;;16.80;99.90;;;;;;5014636;28;20045;-71
2023/05/08 09:19:19;;;;;;;84.78;40.10;;;16.80;99.90;;;;;;5013236;28;19949;-71
2023/05/08 09:21:45;;;;;;;96.43;43.88;;;16.80;99.90;;;;;;5013203;28;20113;-71
2023/05/08 09:24:11;;;;;;;108.27;50.33;;;16.90;99.90;;;;;;5017311;28;20108;-71
2023/05/08 09:26:39;;;;;;;112.00;55.23;;;16.90;99.90;;;;;;5014040;28;20034;-71
2023/05/08 09:29:08;;;;;;;114.05;54.65;;;16.90;99.90;;;;;;5018334;28;20100;-71
2023/05/08 09:31:35;;;;;;;118.38;54.17;;;16.90;99.90;;;;;;5016406;28;20037;-72
2023/05/08 09:34:00;;;;;;;133.32;55.83;;;16.90;99.90;;;;;;5011843;28;20045;-70
2023/05/08 09:36:30;;;;;;;128.93;55.47;;;16.80;99.90;;;;;;5013951;28;20030;-71
2023/05/08 09:38:56;;;;;;;133.15;56.63;;;16.90;99.90;;;;;;5016436;28;20028;-72
2023/05/08 09:41:23;;;;;;;129.27;56.90;;;16.90;99.90;;;;;;5016371;28;20101;-71
2023/05/08 09:44:08;;;;;;;124.10;55.00;;;16.80;99.90;;;;;;5014558;28;20030;-71
2023/05/08 09:46:34;;;;;;;129.90;55.08;;;16.80;99.90;;;;;;5011354;28;20022;-71
2023/05/08 09:49:02;;;;;;;129.47;52.83;;;16.80;99.90;;;;;;5016712;28;20037;-71
2023/05/08 09:51:30;;;;;;;129.30;54.40;;;16.80;99.90;;;;;;5017350;28;20285;-71
2023/05/08 09:53:57;;;;;;;123.53;54.75;;;16.90;99.90;;;;;;5020535;28;20116;-71
2023/05/08 09:56:29;;;;;;;130.93;54.22;;;17.00;99.90;;;;;;5027906;28;20033;-71
2023/05/08 09:58:55;;;;;;;121.50;53.50;;;17.10;99.90;;;;;;5027761;28;20503;-70
2023/05/08 10:01:35;;;;;;;123.10;52.67;;;17.00;99.90;;;;;;5025826;28;20109;-71
2023/05/08 10:04:02;;;;;;;118.72;52.85;;;17.00;99.90;;;;;;5012442;28;20030;-71
2023/05/08 10:06:28;;;;;;;122.07;50.97;;;17.00;99.90;;;;;;5025418;28;20030;-71
2023/05/08 10:09:06;;;;;;;117.68;50.97;;;17.00;99.90;;;;;;5020133;28;20033;-72
2023/05/08 10:11:32;;;;;;;114.13;49.55;;;17.00;99.90;;;;;;5018751;28;20399;-71
2023/05/08 10:13:58;;;;;;;117.10;54.00;;;17.10;99.90;;;;;;5023597;28;20064;-71
2023/05/08 10:16:27;;;;;;;123.45;53.60;;;17.10;99.90;;;;;;5023224;28;20036;-72
2023/05/08 10:18:59;;;;;;;124.70;53.83;;;17.20;99.90;;;;;;5017444;28;20026;-72
2023/05/08 10:21:28;;;;;;;122.75;52.13;;;17.40;99.90;;;;;;5023282;28;20108;-71
2023/05/08 10:23:57;;;;;;;123.40;52.50;;;17.40;99.90;;;;;;5016700;28;20092;-71
2023/05/08 10:26:29;;;;;;;121.75;54.55;;;17.60;99.90;;;;;;5022829;28;20033;-71
2023/05/08 10:28:56;;;;;;;121.88;51.33;;;17.60;99.90;;;;;;5016585;28;20084;-71
2023/05/08 10:31:25;;;;;;;108.97;50.90;;;17.70;99.90;;;;;;5016541;28;20113;-71
2023/05/08 10:33:55;;;;;;;112.30;49.97;;;17.70;99.90;;;;;;5015186;28;20444;-71
2023/05/08 10:36:22;;;;;;;111.60;50.78;;;17.80;99.90;;;;;;5016173;28;20040;-71
2023/05/08 10:38:49;;;;;;;114.15;51.15;;;17.90;99.90;;;;;;5011224;28;20028;-71
2023/05/08 10:41:15;;;;;;;109.85;50.53;;;18.10;99.90;;;;;;5013612;28;20164;-71
2023/05/08 10:43:42;;;;;;;109.13;50.60;;;18.10;99.90;;;;;;5014175;28;20045;-71
2023/05/08 10:46:16;;;;;;;;;;;18.20;99.90;;;;;;5013655;28;20029;-71
2023/05/08 10:49:11;;;;;;;102.75;47.13;;;18.20;99.90;;;;;;5015996;28;19909;-71
2023/05/08 10:52:00;;;;;;;110.43;50.97;;;18.20;99.90;;;;;;5015923;28;20550;-71
2023/05/08 10:54:53;;;;;;;101.95;49.00;;;18.20;99.90;;;;;;5012474;28;20477;-71
2023/05/08 10:57:19;;;;;;;108.85;49.38;;;18.20;99.90;;;;;;5011309;28;20069;-71
2023/05/08 10:59:46;;;;;;;111.53;50.10;;;18.30;99.90;;;;;;5016402;28;20080;-70
2023/05/08 11:02:14;;;;;;;102.68;47.20;;;18.30;99.90;;;;;;5015067;28;20049;-71
2023/05/08 11:04:39;;;;;;;101.50;47.03;;;18.30;99.90;;;;;;5012371;28;20060;-71
2023/05/08 11:07:05;;;;;;;104.97;46.97;;;18.20;99.90;;;;;;5016000;28;20370;-71
2023/05/08 11:09:40;;;;;;;103.70;49.37;;;18.20;99.90;;;;;;5014047;28;20101;-71
2023/05/08 11:12:28;;;;;;;107.80;49.97;;;18.20;99.90;;;;;;5011290;28;20080;-71
2023/05/08 11:15:05;;;;;;;104.63;49.28;;;18.20;99.90;;;;;;5015327;28;20068;-71
2023/05/08 11:17:33;;;;;;;96.82;46.55;;;18.30;99.90;;;;;;5014300;28;20432;-71
2023/05/08 11:20:03;;;;;;;91.72;45.65;;;18.30;99.90;;;;;;5014084;28;20420;-71
2023/05/08 11:22:33;;;;;;;92.28;45.92;;;18.40;99.90;;;;;;5015414;28;20105;-71
2023/05/08 11:25:08;;;;;;;84.57;43.13;;;18.50;99.90;;;;;;5010647;28;20113;-71
2023/05/08 11:28:05;;;;;;;88.60;46.38;;;18.60;99.90;;;;;;5004364;28;20018;-71
2023/05/08 11:30:31;;;;;;;87.18;45.80;;;18.60;99.90;;;;;;5014444;28;20364;-71
2023/05/08 11:33:02;;;;;;;89.97;45.90;;;18.50;99.90;;;;;;5009018;28;20030;-70
2023/05/08 11:35:50;;;;;;;85.10;46.15;;;18.50;99.90;;;;;;5021258;28;20025;-71
2023/05/08 11:38:37;;;;;;;98.47;47.60;;;18.40;99.90;;;;;;5012435;28;20091;-71
2023/05/08 11:41:24;;;;;;;88.18;45.42;;;18.40;99.90;;;;;;5015538;28;20036;-71
2023/05/08 11:44:07;;;;;;;86.88;45.00;;;18.30;99.90;;;;;;5015898;28;20029;-70
2023/05/08 11:46:48;;;;;;;91.32;45.97;;;18.20;99.90;;;;;;5014212;28;20026;-70
2023/05/08 11:49:15;;;;;;;92.97;45.83;;;18.30;99.90;;;;;;5009071;28;20018;-80
2023/05/08 11:51:45;;;;;;;92.93;48.38;;;18.40;99.90;;;;;;5006938;28;20041;-71
2023/05/08 11:54:17;;;;;;;98.63;49.92;;;18.70;99.90;;;;;;5010156;28;20034;-71
2023/05/08 11:56:45;;;;;;;88.00;47.25;;;19.00;99.90;;;;;;5009646;28;20460;-71
2023/05/08 11:59:10;;;;;;;89.93;46.63;;;19.30;99.90;;;;;;5011594;28;20113;-71
2023/05/08 12:01:36;;;;;;;90.70;47.80;;;19.60;99.90;;;;;;5013225;28;20100;-70
2023/05/08 12:04:08;;;;;;;90.77;47.50;;;19.90;99.90;;;;;;5012082;28;20018;-71
2023/05/08 12:06:36;;;;;;;76.50;39.70;;;20.10;99.90;;;;;;5013604;28;20022;-71
2023/05/08 12:09:04;;;;;;;77.40;40.33;;;20.40;99.90;;;;;;5012685;28;20030;-71
2023/05/08 12:11:30;;;;;;;79.07;42.72;;;20.70;99.90;;;;;;5013591;28;20417;-71
2023/05/08 12:13:56;;;;;;;;;;;20.90;99.90;;;;;;5023143;28;20025;-71
2023/05/08 12:16:24;;;;;;;77.93;39.25;;;20.90;99.90;;;;;;5011959;28;20244;-71
2023/05/08 12:18:51;;;;;;;68.80;39.08;;;20.90;99.90;;;;;;5015047;28;20029;-71
2023/05/08 12:21:16;;;;;;;70.18;38.42;;;20.80;99.90;;;;;;5013609;28;20026;-70
2023/05/08 12:23:42;;;;;;;67.83;36.53;;;20.70;99.90;;;;;;5019507;28;20176;-70
2023/05/08 12:26:08;;;;;;;66.30;34.78;;;20.80;99.90;;;;;;5012921;28;20036;-70
2023/05/08 12:28:34;;;;;;;72.13;32.63;;;21.00;99.90;;;;;;5019378;28;20321;-71
2023/05/08 12:31:02;;;;;;;56.77;30.77;;;21.20;99.90;;;;;;5016107;28;20030;-84
2023/05/08 12:33:29;;;;;;;57.35;29.35;;;21.10;99.90;;;;;;5014932;28;20041;-70
2023/05/08 12:35:56;;;;;;;51.83;27.88;;;21.00;99.90;;;;;;5016610;28;20026;-70
2023/05/08 12:38:28;;;;;;;;;;;20.90;99.90;;;;;;5010665;28;20102;-82
2023/05/08 12:40:57;;;;;;;47.30;26.25;;;20.80;99.90;;;;;;5010787;28;19920;-70
2023/05/08 12:43:35;;;;;;;52.72;27.52;;;20.80;99.90;;;;;;5005664;28;20448;-70
2023/05/08 12:46:02;;;;;;;48.28;28.00;;;20.70;99.90;;;;;;5011435;28;20030;-70